Time;durP1;ratioP1;P1;durP2;ratioP2;P2;SDS_P1;SDS_P2;PMS_P1;PMS_P2;Temp;Humidity;BMP_temperature;BMP_pressure;BME280_temperature;BME280_humidity;BME280_pressure;Samples;Min_cycle;Max_cycle;Signal;HPM_P1;HPM_P2
2021/07/02 00:02:24;;;;;;;2.10;1.40;;;23.90;48.90;;;;;;5005707;28;20100;-54
2021/07/02 00:04:51;;;;;;;3.70;2.15;;;24.00;49.70;;;;;;5010622;28;20057;-54
2021/07/02 00:07:16;;;;;;;3.55;2.35;;;23.90;49.00;;;;;;5000894;28;20158;-53
2021/07/02 00:09:42;;;;;;;3.45;2.10;;;23.90;49.00;;;;;;5001276;28;20022;-53
2021/07/02 00:12:08;;;;;;;3.15;1.88;;;23.90;49.10;;;;;;5007395;28;20030;-50
2021/07/02 00:14:34;;;;;;;3.65;2.22;;;23.90;49.10;;;;;;5000767;28;20470;-50
2021/07/02 00:17:00;;;;;;;3.22;1.90;;;23.90;49.20;;;;;;5008490;28;20113;-52
2021/07/02 00:19:26;;;;;;;2.97;2.10;;;23.90;49.20;;;;;;5006835;28;20052;-48
2021/07/02 00:21:52;;;;;;;3.97;2.28;;;23.90;49.20;;;;;;4999153;28;20402;-51
2021/07/02 00:24:18;;;;;;;2.63;1.63;;;23.90;49.20;;;;;;4997403;28;20102;-51
2021/07/02 00:26:44;;;;;;;2.75;1.80;;;23.90;49.20;;;;;;5007223;28;20448;-57
2021/07/02 00:29:10;;;;;;;2.63;1.80;;;23.90;49.30;;;;;;5005674;28;20440;-52
2021/07/02 00:31:36;;;;;;;3.70;1.80;;;23.90;49.30;;;;;;5001526;28;20052;-48
2021/07/02 00:34:02;;;;;;;2.83;1.88;;;23.90;49.40;;;;;;5013295;28;20108;-51
2021/07/02 00:36:28;;;;;;;2.20;1.73;;;23.90;49.40;;;;;;4998457;28;20048;-52
2021/07/02 00:38:54;;;;;;;2.75;1.85;;;23.90;49.40;;;;;;5011467;28;20350;-56
2021/07/02 00:41:20;;;;;;;2.95;1.90;;;23.90;49.50;;;;;;4996814;28;20030;-50
2021/07/02 00:43:54;;;;;;;2.47;1.60;;;23.90;49.50;;;;;;5004021;28;20021;-50
2021/07/02 00:46:21;;;;;;;;;;;23.90;49.50;;;;;;5024378;28;20093;-49
2021/07/02 00:48:47;;;;;;;2.25;1.98;;;23.90;49.50;;;;;;5003582;28;19917;-50
2021/07/02 00:51:14;;;;;;;2.97;1.85;;;23.80;49.50;;;;;;4998409;28;20393;-50
2021/07/02 00:53:41;;;;;;;3.40;1.52;;;23.90;49.50;;;;;;5007287;28;20071;-52
2021/07/02 00:56:12;;;;;;;3.17;1.88;;;23.80;49.50;;;;;;4996496;28;20094;-52
2021/07/02 00:58:39;;;;;;;2.92;1.73;;;23.90;49.50;;;;;;5010298;28;20339;-51
2021/07/02 01:01:05;;;;;;;2.90;1.65;;;23.80;49.50;;;;;;5015026;28;20405;-52
2021/07/02 01:03:31;;;;;;;2.67;1.75;;;23.80;49.50;;;;;;5009971;28;20030;-53
2021/07/02 01:05:59;;;;;;;2.80;1.83;;;23.80;49.50;;;;;;5003085;28;20517;-56
2021/07/02 01:08:25;;;;;;;2.80;1.80;;;23.90;49.60;;;;;;5008245;28;20088;-53
2021/07/02 01:10:51;;;;;;;2.65;1.65;;;23.80;49.50;;;;;;5000979;28;20038;-50
2021/07/02 01:13:17;;;;;;;3.95;2.00;;;23.90;49.60;;;;;;5008478;28;20113;-52
2021/07/02 01:15:43;;;;;;;2.65;1.80;;;23.80;49.50;;;;;;5017737;28;20453;-51
2021/07/02 01:18:13;;;;;;;2.90;1.80;;;23.80;49.50;;;;;;5001078;28;20125;-48
2021/07/02 01:20:42;;;;;;;2.53;1.63;;;23.80;49.50;;;;;;5003823;28;20377;-53
2021/07/02 01:23:07;;;;;;;3.70;2.00;;;23.80;49.50;;;;;;5008483;28;20037;-56
2021/07/02 01:25:35;;;;;;;2.90;1.88;;;23.80;49.50;;;;;;5014730;28;20029;-53
2021/07/02 01:28:05;;;;;;;3.08;1.83;;;23.80;49.60;;;;;;5028624;28;20061;-51
2021/07/02 01:30:32;;;;;;;2.22;1.65;;;23.80;49.60;;;;;;5000373;28;20099;-52
2021/07/02 01:32:58;;;;;;;3.28;1.92;;;23.80;49.60;;;;;;5007453;28;20665;-54
2021/07/02 01:35:24;;;;;;;2.55;1.85;;;23.80;49.60;;;;;;5008905;28;20101;-50
2021/07/02 01:37:50;;;;;;;3.67;2.22;;;23.80;49.60;;;;;;5005751;28;20030;-55
2021/07/02 01:40:17;;;;;;;2.63;1.70;;;23.80;49.60;;;;;;5005926;28;20314;-52
2021/07/02 01:42:50;;;;;;;3.33;1.83;;;23.80;49.60;;;;;;5010200;28;20017;-52
2021/07/02 02:01:15;;;;;;;3.72;1.92;;;23.70;49.60;;;;;;5006801;28;20044;-47
2021/07/02 02:03:42;;;;;;;3.42;2.20;;;23.70;49.60;;;;;;5005644;28;20038;-52
2021/07/02 02:06:08;;;;;;;2.78;1.98;;;23.70;49.60;;;;;;5001405;28;20022;-50
2021/07/02 02:08:34;;;;;;;3.17;1.77;;;23.70;49.70;;;;;;5010951;28;20120;-51
2021/07/02 02:11:03;;;;;;;3.05;1.60;;;23.70;49.60;;;;;;5011014;28;20515;-52
2021/07/02 02:13:36;;;;;;;2.95;1.80;;;23.70;49.60;;;;;;5012523;28;20037;-55
2021/07/02 02:16:08;;;;;;;2.50;1.75;;;23.70;50.20;;;;;;5010481;28;20057;-47
2021/07/02 02:18:35;;;;;;;2.53;1.73;;;23.70;49.60;;;;;;5004168;28;20089;-49
2021/07/02 02:21:01;;;;;;;2.75;2.00;;;23.60;49.50;;;;;;5001519;28;20026;-50
2021/07/02 02:23:27;;;;;;;2.33;1.98;;;23.70;49.50;;;;;;5004131;28;20454;-48
2021/07/02 02:25:54;;;;;;;3.28;2.30;;;23.70;49.50;;;;;;4994940;28;20065;-55
2021/07/02 02:28:22;;;;;;;4.60;2.28;;;23.70;49.50;;;;;;5005917;28;20029;-52
2021/07/02 02:30:48;;;;;;;2.35;1.92;;;23.70;49.40;;;;;;5018731;28;20033;-49
2021/07/02 02:33:15;;;;;;;2.38;1.92;;;23.60;49.30;;;;;;5004502;28;20026;-51
2021/07/02 02:35:41;;;;;;;2.33;1.80;;;23.70;49.40;;;;;;4994754;28;20343;-47
2021/07/02 02:38:07;;;;;;;3.33;2.17;;;23.60;49.30;;;;;;5020112;28;20036;-47
2021/07/02 02:40:34;;;;;;;3.13;2.10;;;23.70;49.90;;;;;;5012357;28;20084;-51
2021/07/02 02:43:01;;;;;;;3.05;1.95;;;23.70;49.30;;;;;;5006439;28;20349;-51
2021/07/02 02:45:29;;;;;;;2.60;1.88;;;23.70;49.30;;;;;;5004387;28;20350;-49
2021/07/02 02:47:57;;;;;;;2.58;1.85;;;23.70;49.30;;;;;;5010526;28;20037;-49
2021/07/02 02:50:23;;;;;;;3.03;1.88;;;23.70;49.20;;;;;;5007259;28;20030;-54
2021/07/02 02:52:49;;;;;;;2.97;2.10;;;23.70;49.20;;;;;;5018010;28;20202;-54
2021/07/02 02:55:16;;;;;;;4.03;1.92;;;23.70;49.20;;;;;;5000953;28;20042;-51
2021/07/02 02:57:42;;;;;;;2.72;2.15;;;23.60;49.20;;;;;;5011019;28;20022;-54
2021/07/02 03:00:11;;;;;;;2.28;1.88;;;23.70;49.20;;;;;;5003534;28;20042;-50
2021/07/02 03:02:37;;;;;;;3.00;1.95;;;23.60;49.10;;;;;;4995142;28;20057;-49
2021/07/02 03:05:05;;;;;;;2.40;1.67;;;23.60;49.10;;;;;;5005350;28;20443;-48
2021/07/02 03:07:32;;;;;;;2.47;1.88;;;23.60;49.10;;;;;;4994368;28;20027;-51
2021/07/02 03:09:59;;;;;;;2.65;1.80;;;23.60;49.10;;;;;;5010146;28;20022;-51
2021/07/02 03:12:25;;;;;;;2.95;1.92;;;23.60;49.10;;;;;;4993411;28;20453;-49
2021/07/02 03:14:53;;;;;;;2.67;2.05;;;23.60;49.10;;;;;;5006215;28;20022;-49
2021/07/02 03:17:20;;;;;;;3.10;2.10;;;23.60;49.10;;;;;;5006201;28;20156;-45
2021/07/02 03:19:47;;;;;;;2.20;1.88;;;23.60;49.10;;;;;;5018665;28;20099;-47
2021/07/02 03:22:16;;;;;;;3.20;2.20;;;23.60;49.00;;;;;;5001720;28;20034;-50
2021/07/02 03:24:43;;;;;;;2.97;2.08;;;23.60;49.00;;;;;;5001835;28;20030;-49
2021/07/02 03:27:11;;;;;;;3.75;2.45;;;23.60;49.00;;;;;;4996454;28;20030;-51
2021/07/02 03:29:39;;;;;;;2.85;2.10;;;23.60;49.10;;;;;;5010135;28;20104;-49
2021/07/02 03:32:08;;;;;;;3.13;2.38;;;23.60;49.10;;;;;;5020986;28;20034;-48
2021/07/02 03:34:35;;;;;;;1.73;1.60;;;23.60;49.10;;;;;;5009244;28;20022;-54
2021/07/02 03:37:01;;;;;;;3.83;2.20;;;23.60;49.00;;;;;;4995703;28;20042;-55
2021/07/02 03:39:27;;;;;;;2.42;1.90;;;23.60;49.00;;;;;;5001675;28;20026;-53
2021/07/02 03:41:53;;;;;;;2.92;2.15;;;23.60;49.10;;;;;;4996034;28;20125;-49
2021/07/02 03:44:21;;;;;;;2.67;1.65;;;23.60;49.00;;;;;;5020469;28;20033;-51
2021/07/02 03:46:49;;;;;;;2.42;1.83;;;23.60;49.00;;;;;;5006253;28;20477;-51
2021/07/02 03:49:16;;;;;;;3.03;2.25;;;23.60;49.00;;;;;;5020087;28;20025;-50
2021/07/02 03:51:42;;;;;;;2.35;1.92;;;23.60;49.00;;;;;;5025108;28;20133;-51
2021/07/02 03:54:07;;;;;;;2.80;2.20;;;23.60;49.00;;;;;;4999985;28;20034;-49
2021/07/02 03:56:33;;;;;;;2.70;1.83;;;23.60;49.00;;;;;;4994002;28;20046;-50
2021/07/02 03:58:59;;;;;;;3.38;2.13;;;23.60;49.00;;;;;;4995360;28;20113;-50
2021/07/02 04:01:25;;;;;;;3.03;2.03;;;23.60;49.10;;;;;;4995582;28;20041;-46
2021/07/02 04:03:50;;;;;;;2.80;2.13;;;23.50;49.00;;;;;;4996751;28;20032;-50
2021/07/02 04:06:16;;;;;;;2.55;2.00;;;23.60;49.10;;;;;;5002795;28;20060;-53
2021/07/02 04:08:42;;;;;;;2.70;2.00;;;23.60;49.10;;;;;;5001917;28;20386;-55
2021/07/02 04:11:08;;;;;;;2.28;1.75;;;23.60;49.10;;;;;;4992050;28;20121;-51
2021/07/02 04:13:34;;;;;;;2.85;2.30;;;23.60;49.10;;;;;;4996305;28;20320;-48
2021/07/02 04:16:00;;;;;;;2.72;1.80;;;23.60;49.10;;;;;;4995305;28;20049;-51
2021/07/02 04:18:26;;;;;;;2.60;1.90;;;23.60;49.10;;;;;;5014325;28;20091;-49
2021/07/02 04:20:52;;;;;;;3.40;2.47;;;23.60;49.10;;;;;;5020436;28;20438;-49
2021/07/02 04:23:18;;;;;;;2.50;2.10;;;23.50;49.00;;;;;;4999457;28;20030;-52
2021/07/02 04:25:43;;;;;;;3.10;2.25;;;23.50;49.00;;;;;;5013575;28;20030;-50
2021/07/02 04:28:10;;;;;;;2.90;2.08;;;23.50;49.00;;;;;;5013103;28;20703;-57
2021/07/02 04:30:35;;;;;;;2.70;2.13;;;23.50;49.10;;;;;;5021810;28;20026;-50
2021/07/02 04:33:01;;;;;;;3.35;2.05;;;23.50;49.10;;;;;;5022638;28;20036;-51
2021/07/02 04:35:27;;;;;;;2.92;2.00;;;23.50;49.10;;;;;;5006741;28;20042;-51
2021/07/02 04:37:53;;;;;;;2.88;2.00;;;23.50;49.10;;;;;;5008097;28;20330;-51
2021/07/02 04:40:19;;;;;;;2.97;2.47;;;23.50;49.10;;;;;;5004091;28;20073;-50
2021/07/02 04:42:44;;;;;;;2.55;2.13;;;23.50;49.10;;;;;;5004375;28;20022;-46
2021/07/02 04:45:10;;;;;;;3.15;2.55;;;23.50;49.10;;;;;;5001273;28;20034;-50
2021/07/02 04:47:37;;;;;;;2.80;1.98;;;23.50;49.30;;;;;;5012043;28;20429;-57
2021/07/02 04:50:07;;;;;;;2.92;1.92;;;23.60;49.10;;;;;;5009680;28;20022;-50
2021/07/02 04:52:33;;;;;;;2.55;2.10;;;23.50;49.00;;;;;;5005408;28;20038;-49
2021/07/02 04:54:59;;;;;;;3.20;2.13;;;23.50;49.00;;;;;;5003848;28;20111;-52
2021/07/02 04:57:24;;;;;;;2.10;1.80;;;23.50;49.00;;;;;;5011712;28;20037;-52
2021/07/02 04:59:51;;;;;;;3.33;2.30;;;23.50;49.00;;;;;;5001107;28;20134;-54
2021/07/02 05:02:17;;;;;;;2.95;2.33;;;23.50;49.00;;;;;;5005713;28;20034;-53
2021/07/02 05:04:43;;;;;;;3.60;2.53;;;23.50;48.90;;;;;;5016330;28;20053;-52
2021/07/02 05:07:10;;;;;;;2.88;2.22;;;23.50;49.00;;;;;;5016299;28;20440;-51
2021/07/02 05:09:36;;;;;;;5.13;2.30;;;23.60;49.00;;;;;;5022670;28;20120;-52
2021/07/02 05:12:03;;;;;;;3.28;2.13;;;23.50;49.00;;;;;;5015704;28;20029;-50
2021/07/02 05:14:29;;;;;;;4.03;2.10;;;23.50;49.00;;;;;;5022250;28;20030;-56
2021/07/02 05:16:55;;;;;;;3.78;2.53;;;23.50;49.00;;;;;;5012338;28;20034;-49
2021/07/02 05:19:21;;;;;;;2.60;2.20;;;23.50;49.00;;;;;;5013532;28;20053;-54
2021/07/02 05:21:48;;;;;;;2.40;2.20;;;23.50;49.00;;;;;;5015001;28;20049;-52
2021/07/02 05:24:13;;;;;;;2.65;2.15;;;23.50;49.00;;;;;;5023716;28;20041;-52
2021/07/02 05:26:39;;;;;;;3.20;1.98;;;23.50;49.00;;;;;;4999589;28;20801;-48
2021/07/02 05:29:05;;;;;;;4.75;2.92;;;23.50;48.90;;;;;;5018113;28;20109;-53
2021/07/02 05:31:31;;;;;;;3.00;2.20;;;23.50;48.90;;;;;;5010787;28;20030;-53
2021/07/02 05:33:57;;;;;;;3.50;2.13;;;23.50;48.90;;;;;;5008314;28;20328;-52
2021/07/02 05:36:22;;;;;;;3.30;2.33;;;23.50;48.90;;;;;;5007346;28;20335;-54
2021/07/02 05:38:48;;;;;;;2.20;2.00;;;23.50;48.90;;;;;;5010441;28;20048;-52
2021/07/02 05:41:14;;;;;;;3.65;2.17;;;23.60;48.90;;;;;;5012657;28;20026;-55
2021/07/02 05:43:40;;;;;;;3.70;2.50;;;23.50;48.90;;;;;;5010303;28;20022;-54
2021/07/02 05:46:07;;;;;;;3.33;2.10;;;23.50;48.90;;;;;;5017922;28;20442;-48
2021/07/02 05:48:33;;;;;;;3.42;2.60;;;23.50;48.80;;;;;;5013870;28;20485;-52
2021/07/02 05:50:59;;;;;;;3.70;2.35;;;23.50;48.80;;;;;;5015984;28;20030;-49
2021/07/02 05:53:25;;;;;;;3.05;2.45;;;23.50;48.80;;;;;;5019649;28;20345;-54
2021/07/02 05:55:51;;;;;;;2.95;2.28;;;23.60;48.80;;;;;;5008699;28;20041;-53
2021/07/02 05:58:17;;;;;;;3.15;2.20;;;23.60;48.80;;;;;;4998741;28;20382;-55
2021/07/02 06:00:42;;;;;;;2.70;2.38;;;23.60;48.80;;;;;;5013523;28;20458;-52
2021/07/02 06:03:08;;;;;;;2.38;2.05;;;23.60;48.80;;;;;;5013253;28;20021;-52
2021/07/02 06:05:35;;;;;;;3.03;2.63;;;23.60;48.80;;;;;;5008667;28;20426;-51
2021/07/02 06:08:01;;;;;;;3.25;2.35;;;23.60;48.70;;;;;;5009019;28;20053;-54
2021/07/02 06:10:27;;;;;;;2.60;1.85;;;23.60;48.70;;;;;;5000631;28;20327;-50
2021/07/02 06:12:54;;;;;;;3.60;2.22;;;23.60;48.70;;;;;;5000413;28;20029;-50
2021/07/02 06:15:20;;;;;;;3.42;2.25;;;23.60;48.60;;;;;;5016710;28;20058;-54
2021/07/02 06:17:48;;;;;;;3.90;2.40;;;23.60;48.60;;;;;;5017079;28;20038;-51
2021/07/02 06:20:15;;;;;;;2.65;1.90;;;23.60;48.60;;;;;;5008573;28;20037;-51
2021/07/02 06:22:42;;;;;;;3.00;2.38;;;23.60;48.50;;;;;;5014088;28;20030;-53
2021/07/02 06:25:10;;;;;;;3.00;2.40;;;23.60;48.50;;;;;;4999237;28;20048;-49
2021/07/02 06:27:36;;;;;;;2.90;2.40;;;23.60;48.50;;;;;;5004612;28;20030;-49
2021/07/02 06:30:04;;;;;;;4.47;2.63;;;23.60;48.50;;;;;;5000186;28;20037;-53
2021/07/02 06:32:29;;;;;;;3.45;2.35;;;23.60;48.40;;;;;;5014051;28;20034;-54
2021/07/02 06:34:55;;;;;;;4.20;2.13;;;23.60;48.40;;;;;;5013823;28;20091;-52
2021/07/02 06:37:21;;;;;;;3.75;2.10;;;23.70;48.40;;;;;;5018463;28;20026;-50
2021/07/02 06:39:47;;;;;;;3.60;2.20;;;23.70;48.40;;;;;;5002381;28;20034;-47
2021/07/02 06:42:13;;;;;;;5.38;2.50;;;23.70;48.50;;;;;;5005607;28;20331;-53
2021/07/02 06:44:38;;;;;;;3.47;2.30;;;23.70;48.40;;;;;;4996340;28;20452;-51
2021/07/02 06:47:05;;;;;;;4.30;2.58;;;23.70;48.50;;;;;;4994253;28;20101;-52
2021/07/02 06:49:30;;;;;;;3.72;2.40;;;23.70;49.10;;;;;;5007784;28;20476;-53
2021/07/02 06:51:56;;;;;;;2.42;2.17;;;23.70;48.50;;;;;;5014870;28;20021;-57
2021/07/02 06:54:22;;;;;;;2.83;2.20;;;23.80;49.10;;;;;;5003671;28;20049;-51
2021/07/02 06:57:12;;;;;;;2.35;2.00;;;23.90;48.50;;;;;;5002090;28;20832;-48
2021/07/02 06:59:38;;;;;;;3.20;2.10;;;23.90;48.50;;;;;;5016358;28;20041;-51
2021/07/02 07:02:09;;;;;;;4.97;2.10;;;23.90;48.40;;;;;;5023580;28;20425;-54
2021/07/02 07:04:35;;;;;;;2.15;1.80;;;24.00;48.30;;;;;;5018245;28;20030;-58
2021/07/02 07:07:08;;;;;;;3.70;2.10;;;24.00;48.20;;;;;;5020393;28;20036;-58
2021/07/02 07:09:35;;;;;;;2.87;2.10;;;24.10;48.10;;;;;;5018159;28;20049;-54
2021/07/02 07:12:02;;;;;;;2.05;1.75;;;24.10;48.00;;;;;;5002872;28;20117;-57
2021/07/02 07:14:27;;;;;;;2.63;1.73;;;24.10;47.90;;;;;;5012357;28;20022;-57
2021/07/02 07:16:53;;;;;;;2.85;1.85;;;24.10;47.90;;;;;;5000750;28;20038;-58
2021/07/02 07:19:24;;;;;;;2.10;1.75;;;24.20;47.90;;;;;;5001323;28;20120;-57
2021/07/02 07:21:50;;;;;;;3.28;2.05;;;24.20;47.80;;;;;;5002786;28;20066;-56
2021/07/02 07:24:15;;;;;;;2.72;2.00;;;24.20;47.80;;;;;;5023914;28;20508;-56
2021/07/02 07:26:41;;;;;;;2.72;1.95;;;24.20;47.70;;;;;;5021511;28;20129;-57
2021/07/02 07:29:07;;;;;;;4.22;1.92;;;24.20;47.60;;;;;;5019768;28;20437;-57
2021/07/02 07:31:33;;;;;;;2.60;1.85;;;24.20;47.50;;;;;;5018415;28;20067;-53
2021/07/02 07:33:59;;;;;;;3.17;2.10;;;24.30;47.50;;;;;;5019261;28;20041;-57
2021/07/02 07:36:26;;;;;;;2.95;1.67;;;24.30;47.50;;;;;;5023118;28;20067;-55
2021/07/02 07:38:52;;;;;;;3.05;2.03;;;24.30;47.50;;;;;;5020490;28;20353;-58
2021/07/02 07:41:20;;;;;;;2.80;2.00;;;24.30;47.40;;;;;;5021695;28;20079;-56
2021/07/02 07:43:46;;;;;;;3.83;1.90;;;24.30;47.30;;;;;;5017065;28;20115;-58
2021/07/02 07:46:12;;;;;;;1.92;1.63;;;24.40;47.30;;;;;;5018498;28;20461;-57
2021/07/02 07:48:37;;;;;;;2.50;1.80;;;24.40;47.20;;;;;;5021862;28;20482;-59
2021/07/02 07:53:44;;;;;;;3.50;2.00;;;24.40;47.20;;;;;;5017772;28;20070;-58
2021/07/02 07:56:10;;;;;;;2.45;1.77;;;24.40;47.20;;;;;;5025088;28;20037;-62
2021/07/02 07:58:36;;;;;;;4.82;2.03;;;24.50;47.30;;;;;;5026567;28;20013;-59
2021/07/02 08:01:02;;;;;;;2.47;2.03;;;24.50;47.90;;;;;;5019784;28;20033;-60
2021/07/02 08:03:28;;;;;;;2.72;2.05;;;24.60;47.20;;;;;;5021209;28;20112;-60
2021/07/02 08:05:54;;;;;;;2.33;1.80;;;24.50;47.10;;;;;;5022028;28;20449;-56
2021/07/02 08:08:20;;;;;;;2.53;1.85;;;24.50;47.10;;;;;;5021860;28;20036;-58
2021/07/02 08:10:46;;;;;;;2.67;1.90;;;24.50;47.10;;;;;;5023646;28;20029;-60
2021/07/02 08:13:11;;;;;;;2.67;1.92;;;24.50;47.10;;;;;;5026471;28;20037;-57
2021/07/02 08:15:37;;;;;;;2.72;1.85;;;24.60;47.10;;;;;;5022112;28;20444;-56
2021/07/02 08:18:03;;;;;;;2.42;1.77;;;24.60;47.10;;;;;;5017221;28;20030;-58
2021/07/02 08:20:29;;;;;;;5.13;2.15;;;24.60;47.10;;;;;;5012049;28;20038;-54
2021/07/02 08:22:55;;;;;;;2.55;1.77;;;24.60;47.00;;;;;;5014849;28;20029;-60
2021/07/02 08:25:27;;;;;;;3.20;2.10;;;24.60;47.00;;;;;;5015318;28;20437;-62
2021/07/02 08:30:38;;;;;;;2.60;2.10;;;24.60;47.00;;;;;;5012741;28;20053;-55
2021/07/02 08:33:04;;;;;;;2.92;2.03;;;24.60;47.00;;;;;;5014807;28;20351;-59
2021/07/02 08:35:30;;;;;;;2.65;2.10;;;24.70;47.00;;;;;;4999453;28;20046;-58
2021/07/02 08:37:56;;;;;;;2.55;1.98;;;24.70;47.00;;;;;;5000953;28;20045;-61
2021/07/02 08:40:22;;;;;;;2.92;1.77;;;24.70;47.00;;;;;;5006898;28;20030;-61
2021/07/02 08:42:49;;;;;;;3.00;2.00;;;24.70;47.00;;;;;;5012187;28;20119;-58
2021/07/02 08:45:15;;;;;;;3.35;2.22;;;24.70;47.00;;;;;;5013925;28;20331;-62
2021/07/02 08:47:42;;;;;;;3.58;1.70;;;24.70;47.00;;;;;;5004631;28;20046;-61
2021/07/02 08:50:09;;;;;;;2.90;1.70;;;24.70;47.00;;;;;;5008656;28;20030;-61
2021/07/02 08:52:37;;;;;;;2.55;2.13;;;24.70;47.00;;;;;;5025379;28;21593;-59
2021/07/02 08:55:04;;;;;;;2.28;1.95;;;24.70;47.00;;;;;;5025391;28;20384;-61
2021/07/02 08:57:31;;;;;;;2.55;1.67;;;24.70;46.90;;;;;;5023066;28;20030;-61
2021/07/02 08:59:59;;;;;;;2.42;1.80;;;24.70;47.00;;;;;;5025359;28;20022;-62
2021/07/02 09:02:30;;;;;;;2.17;1.98;;;24.70;46.90;;;;;;5020068;28;20096;-59
2021/07/02 09:04:57;;;;;;;2.78;1.83;;;24.70;46.90;;;;;;5020574;28;20105;-60
2021/07/02 09:07:23;;;;;;;2.05;1.85;;;24.70;46.90;;;;;;5024519;28;20031;-60
2021/07/02 09:09:54;;;;;;;2.65;1.98;;;24.70;46.90;;;;;;5023641;28;21453;-60
2021/07/02 09:12:31;;;;;;;4.68;1.80;;;24.80;47.00;;;;;;5021522;28;20485;-57
2021/07/02 09:15:14;;;;;;;3.60;1.98;;;24.80;47.10;;;;;;5024222;28;20128;-57
2021/07/02 09:17:49;;;;;;;3.55;2.10;;;24.80;47.20;;;;;;5023208;28;20034;-63
2021/07/02 09:20:18;;;;;;;2.90;1.98;;;24.80;47.80;;;;;;5024910;28;20046;-59
2021/07/02 09:22:49;;;;;;;2.28;1.80;;;24.80;47.20;;;;;;5020952;28;20044;-55
2021/07/02 09:25:28;;;;;;;3.25;2.30;;;24.90;47.30;;;;;;5023592;28;20448;-59
2021/07/02 09:27:57;;;;;;;2.97;1.90;;;24.90;47.30;;;;;;5022084;28;20026;-59
2021/07/02 09:30:29;;;;;;;2.88;2.20;;;24.90;47.30;;;;;;5019042;28;20413;-62
2021/07/02 09:32:58;;;;;;;3.30;1.95;;;25.00;47.30;;;;;;5017840;28;20338;-61
2021/07/02 09:35:34;;;;;;;4.15;1.98;;;24.90;47.30;;;;;;5016037;28;20042;-59
2021/07/02 09:38:02;;;;;;;2.78;2.20;;;25.00;47.30;;;;;;5015395;28;20030;-55
2021/07/02 09:40:37;;;;;;;2.65;1.90;;;24.90;47.20;;;;;;5024451;28;20858;-57
2021/07/02 09:43:10;;;;;;;2.10;1.90;;;25.00;47.30;;;;;;5025302;28;20033;-58
2021/07/02 09:45:52;;;;;;;2.70;2.17;;;25.00;47.30;;;;;;5022195;28;20038;-61
2021/07/02 09:48:23;;;;;;;2.13;1.92;;;25.00;47.30;;;;;;5014255;28;20068;-60
2021/07/02 09:50:50;;;;;;;2.28;2.08;;;25.00;47.40;;;;;;5018571;28;20432;-59
2021/07/02 09:53:25;;;;;;;3.08;1.85;;;25.00;47.40;;;;;;5017734;28;20026;-59
2021/07/02 09:55:53;;;;;;;2.15;1.90;;;25.00;47.40;;;;;;5019289;28;20107;-59
2021/07/02 09:58:48;;;;;;;3.13;2.08;;;25.10;47.40;;;;;;5015400;28;20034;-58
2021/07/02 10:01:25;;;;;;;4.60;2.00;;;25.10;47.30;;;;;;4998074;28;20080;-57
2021/07/02 10:03:51;;;;;;;2.53;1.83;;;25.10;47.40;;;;;;5019913;28;20041;-59
2021/07/02 10:06:25;;;;;;;2.67;2.00;;;25.00;47.40;;;;;;5019203;28;20505;-56
2021/07/02 10:08:51;;;;;;;2.22;1.90;;;25.10;47.50;;;;;;5015873;28;20139;-65
2021/07/02 10:11:18;;;;;;;3.03;2.03;;;25.10;47.50;;;;;;5016408;28;20902;-59
2021/07/02 10:13:46;;;;;;;2.25;2.05;;;25.10;47.50;;;;;;5016533;28;20033;-58
2021/07/02 10:16:13;;;;;;;2.80;2.30;;;25.10;47.50;;;;;;5021786;28;20033;-55
2021/07/02 10:18:44;;;;;;;2.88;2.42;;;25.10;47.60;;;;;;5016375;28;20042;-55
2021/07/02 10:21:11;;;;;;;3.22;2.47;;;25.20;47.70;;;;;;5019395;28;20103;-52
2021/07/02 10:23:41;;;;;;;4.65;2.03;;;25.10;47.60;;;;;;5020762;28;20045;-59
2021/07/02 10:26:08;;;;;;;2.88;2.45;;;25.20;47.70;;;;;;5015801;28;20507;-60
2021/07/02 10:28:37;;;;;;;3.88;2.25;;;25.20;47.70;;;;;;5017352;28;20121;-60
2021/07/02 10:31:06;;;;;;;3.30;2.40;;;25.20;47.70;;;;;;5021571;28;20024;-61
2021/07/02 10:33:33;;;;;;;2.83;2.35;;;25.20;47.70;;;;;;5008782;28;20034;-60
2021/07/02 10:36:05;;;;;;;3.47;2.60;;;25.20;47.70;;;;;;5016619;28;20044;-61
2021/07/02 10:38:38;;;;;;;2.65;2.33;;;25.30;47.70;;;;;;5020003;28;20115;-63
2021/07/02 10:41:13;;;;;;;2.92;2.55;;;25.20;47.60;;;;;;5018880;28;20107;-64
2021/07/02 10:44:03;;;;;;;3.10;2.50;;;25.20;47.60;;;;;;5019894;28;20045;-64
2021/07/02 10:46:32;;;;;;;3.20;2.42;;;25.20;47.50;;;;;;5023689;28;20040;-65
2021/07/02 10:49:04;;;;;;;3.70;2.60;;;25.20;47.50;;;;;;5019371;28;20123;-64
2021/07/02 10:51:40;;;;;;;3.33;2.58;;;25.20;47.50;;;;;;5018750;28;20038;-63
2021/07/02 10:54:23;;;;;;;3.35;2.85;;;25.20;47.50;;;;;;5018931;28;20032;-65
2021/07/02 10:56:53;;;;;;;3.05;2.47;;;25.30;47.60;;;;;;5023173;28;20052;-63
2021/07/02 10:59:21;;;;;;;3.03;2.50;;;25.20;47.50;;;;;;5026313;28;20032;-65
2021/07/02 11:02:17;;;;;;;3.03;2.72;;;25.20;47.50;;;;;;5024682;28;20021;-65
2021/07/02 11:04:49;;;;;;;3.30;2.67;;;25.20;47.50;;;;;;5033426;28;20040;-65
2021/07/02 11:07:21;;;;;;;2.53;2.30;;;25.20;47.50;;;;;;5029534;28;20495;-67
2021/07/02 11:09:57;;;;;;;3.42;2.58;;;25.20;47.60;;;;;;5030825;28;20034;-61
2021/07/02 11:12:38;;;;;;;2.42;2.08;;;25.20;47.60;;;;;;5025553;28;20125;-64
2021/07/02 11:15:08;;;;;;;2.90;2.40;;;25.20;47.60;;;;;;5015798;28;20048;-64
2021/07/02 11:17:52;;;;;;;3.03;2.65;;;25.20;47.60;;;;;;5030582;28;20029;-64
2021/07/02 11:20:28;;;;;;;3.78;2.65;;;25.20;47.60;;;;;;5021403;28;20050;-63
2021/07/02 11:23:19;;;;;;;3.30;2.55;;;25.30;47.70;;;;;;5012764;28;20092;-61
2021/07/02 11:26:00;;;;;;;2.53;2.33;;;25.30;47.70;;;;;;5034518;28;20029;-63
2021/07/02 11:28:48;;;;;;;2.58;2.28;;;25.30;47.70;;;;;;5020321;28;20040;-64
2021/07/02 11:31:38;;;;;;;2.75;2.30;;;25.30;47.70;;;;;;5021345;28;20416;-59
2021/07/02 11:34:16;;;;;;;2.70;2.05;;;25.30;47.60;;;;;;5031547;28;20022;-56
2021/07/02 11:37:09;;;;;;;4.25;2.70;;;25.30;47.70;;;;;;5019814;28;20034;-58
2021/07/02 11:39:45;;;;;;;3.58;2.70;;;25.30;47.60;;;;;;4998727;28;20038;-58
2021/07/02 11:42:11;;;;;;;2.85;2.30;;;25.20;47.60;;;;;;5008237;28;20044;-55
2021/07/02 11:44:38;;;;;;;2.55;2.20;;;25.30;47.70;;;;;;5013530;28;20026;-57
2021/07/02 11:47:05;;;;;;;5.18;2.63;;;25.30;47.70;;;;;;5023178;28;20040;-57
2021/07/02 11:49:31;;;;;;;3.35;2.55;;;25.30;47.70;;;;;;5035902;28;20143;-55
2021/07/02 11:51:57;;;;;;;3.47;2.90;;;25.30;47.70;;;;;;5016927;28;20072;-56
2021/07/02 11:54:23;;;;;;;3.17;2.55;;;25.30;47.70;;;;;;5017408;28;20475;-54
2021/07/02 11:56:49;;;;;;;4.38;2.65;;;25.30;47.70;;;;;;5017419;28;20073;-57
2021/07/02 11:59:16;;;;;;;3.08;2.75;;;25.30;47.70;;;;;;5019161;28;20057;-55
2021/07/02 12:01:46;;;;;;;3.60;2.75;;;25.30;47.70;;;;;;5029501;28;20334;-55
2021/07/02 12:04:20;;;;;;;3.55;2.65;;;25.40;47.70;;;;;;5016967;28;20046;-56
2021/07/02 12:06:49;;;;;;;5.00;3.55;;;25.40;47.70;;;;;;5004549;28;20040;-60
2021/07/02 12:09:21;;;;;;;3.22;2.80;;;25.40;47.70;;;;;;4997715;28;20105;-56
2021/07/02 12:11:52;;;;;;;3.67;3.00;;;25.40;47.80;;;;;;4998560;28;20133;-54
2021/07/02 12:14:24;;;;;;;3.20;2.72;;;25.40;47.80;;;;;;4997589;28;20045;-57
2021/07/02 12:16:52;;;;;;;3.50;2.95;;;25.40;47.80;;;;;;5013105;28;20503;-57
2021/07/02 12:19:20;;;;;;;2.97;2.67;;;25.40;47.80;;;;;;5031832;28;20085;-58
2021/07/02 12:22:09;;;;;;;3.20;2.90;;;25.40;47.90;;;;;;5026922;28;20491;-58
2021/07/02 12:24:42;;;;;;;3.45;2.95;;;25.40;47.90;;;;;;5016269;28;20038;-59
2021/07/02 12:27:12;;;;;;;3.15;2.75;;;25.50;48.00;;;;;;5017115;28;20030;-57
2021/07/02 12:29:38;;;;;;;3.38;2.80;;;25.50;48.00;;;;;;5033289;28;20029;-56
2021/07/02 12:32:10;;;;;;;2.50;2.28;;;25.50;48.00;;;;;;5016496;28;20038;-57
2021/07/02 12:34:47;;;;;;;3.05;2.70;;;25.50;47.90;;;;;;5016931;28;20030;-56
2021/07/02 12:37:21;;;;;;;2.90;2.60;;;25.50;47.90;;;;;;5016268;28;20168;-57
2021/07/02 12:39:49;;;;;;;2.80;2.50;;;25.50;47.90;;;;;;5034556;28;20041;-56
2021/07/02 12:42:21;;;;;;;3.17;2.78;;;25.50;48.00;;;;;;5021173;28;20030;-58
2021/07/02 12:44:51;;;;;;;2.63;2.22;;;25.50;47.90;;;;;;5016014;28;20346;-56
2021/07/02 12:47:18;;;;;;;3.03;2.25;;;25.60;48.00;;;;;;5016848;28;20456;-54
2021/07/02 12:49:46;;;;;;;2.97;2.25;;;25.50;48.00;;;;;;5027901;28;20040;-54
2021/07/02 12:55:13;;;;;;;3.45;2.60;;;25.60;48.00;;;;;;5025650;28;20112;-58
2021/07/02 12:57:54;;;;;;;3.55;2.65;;;25.60;48.10;;;;;;5019158;28;20362;-58
2021/07/02 13:00:20;;;;;;;3.13;2.67;;;25.60;48.10;;;;;;5028555;28;20154;-59
2021/07/02 13:02:46;;;;;;;3.80;2.40;;;25.60;48.10;;;;;;5005167;28;20040;-58
2021/07/02 13:05:20;;;;;;;3.42;3.00;;;25.60;48.10;;;;;;5019817;28;20030;-57
2021/07/02 13:07:49;;;;;;;;;;;25.60;48.10;;;;;;5014349;28;20068;-59
2021/07/02 13:10:20;;;;;;;3.33;2.80;;;25.60;48.10;;;;;;5003680;28;19944;-59
2021/07/02 13:13:20;;;;;;;3.08;2.75;;;25.60;48.10;;;;;;5009599;28;20108;-59
2021/07/02 13:15:48;;;;;;;3.55;2.92;;;25.60;48.10;;;;;;5026282;28;20097;-55
2021/07/02 13:18:37;;;;;;;3.67;2.80;;;25.60;48.10;;;;;;5034535;28;20461;-60
2021/07/02 13:21:13;;;;;;;3.65;3.33;;;25.60;48.00;;;;;;5016542;28;20382;-59